Flight Track Log - Related Links

Times and Time Zones

All times are in EDT time to prevent confusion due to time zone crossing. See the UAL538 flight status page for this flight to view local times or setup timezone preferences in your user account.

Time Position Orientation Groundspeed Altitude Reporting Facility
EDT Latitude Longitude Course Direction KTS MPH feet Rate Location/Type
Wed 03:57:29 PM 37.6500 -122.3667 137° Southeast 147 169 1,500  Level Northern Cal TRACON
Wed 03:58:29 PM 37.7000 -122.3833 345° North 217 250 3,800 2,684 Climbing Northern Cal TRACON
Wed 03:59:23 PM 37.6833 -122.4500 252° West 259 298 6,600 2,842 Climbing Northern Cal TRACON
Wed 04:00:23 PM 37.6167 -122.4833 202° Southwest 298 343 9,200 2,341 Climbing Northern Cal TRACON
Wed 04:00:45 PM 37.5992 -122.4817 176° South 287 330 9,800 1,952 Climbing Oakland Center
Wed 04:01:46 PM 37.5200 -122.4344 155° Southeast 330 380 11,900 2,585 Climbing Oakland Center
Wed 04:02:00 PM 37.1988 -122.0125 137° Southeast  Level FlightAware Approximate
Wed 04:02:48 PM 37.4442 -122.3217 130° Southeast 353 406 15,100  Level Oakland Center
Wed 04:03:49 PM 37.3794 -122.2225 129° Southeast 364 419 17,700 2,262 Climbing Oakland Center
Wed 04:04:50 PM 37.3103 -122.1175 130° Southeast 385 443 19,700 2,146 Climbing Oakland Center
Wed 04:05:52 PM 37.2403 -122.0086 129° Southeast 399 459 22,100 1,902 Climbing Oakland Center
Wed 04:06:53 PM 37.1650 -121.8981 130° Southeast 414 476 23,600 1,574 Climbing Oakland Center
Wed 04:07:54 PM 37.0869 -121.7814 130° Southeast 433 498 25,300 1,659 Climbing Oakland Center
Wed 04:08:56 PM 37.0078 -121.6642 130° Southeast 440 506 27,000 976 Climbing Oakland Center
Wed 04:09:57 PM 36.9272 -121.5444 130° Southeast 449 517 27,300 1,082 Climbing Oakland Center
Wed 04:10:58 PM 36.8306 -121.3989 130° Southeast 455 524 29,200 1,659 Climbing Oakland Center
Wed 04:12:00 PM 36.7503 -121.2786 130° Southeast 463 533 30,700 1,512 Climbing Oakland Center
Wed 04:13:01 PM 36.6650 -121.1569 131° Southeast 464 534 32,300 1,574 Climbing Oakland Center
Wed 04:14:02 PM 36.5808 -121.0342 130° Southeast 464 534 33,900 1,268 Climbing Oakland Center
Wed 04:15:04 PM 36.4978 -120.9128 130° Southeast 461 531 34,900 488 Climbing Oakland Center
Wed 04:16:05 PM 36.4150 -120.7914 130° Southeast 457 526 34,900  Level Oakland Center
Wed 04:17:06 PM 36.3319 -120.6694 130° Southeast 459 528 34,900 49 Level Oakland Center
Wed 04:18:08 PM 36.2469 -120.5494 131° Southeast 460 529 35,000 49 Climbing Oakland Center
Wed 04:19:09 PM 36.1625 -120.4289 131° Southeast 462 532 35,000  Level Oakland Center
Wed 04:20:10 PM 36.0619 -120.2844 131° Southeast 463 533 35,000  Level Oakland Center
Wed 04:21:12 PM 35.9775 -120.1636 131° Southeast 462 532 35,000  Level Oakland Center
Wed 04:22:13 PM 35.8933 -120.0439 131° Southeast 460 529 35,000 -49 Level Oakland Center
Wed 04:23:14 PM 35.8075 -119.9231 131° Southeast 465 535 34,900  Descending Oakland Center
Wed 04:24:15 PM 35.7228 -119.8011 131° Southeast 466 536 35,000 49 Climbing Oakland Center
Wed 04:25:17 PM 35.6450 -119.6744 127° Southeast 462 532 35,000  Level Oakland Center
Wed 04:26:18 PM 35.5669 -119.5478 127° Southeast 464 534 35,000  Level Oakland Center
Wed 04:27:19 PM 35.4886 -119.4214 127° Southeast 464 534 35,000  Level Oakland Center
Wed 04:28:01 PM 35.4428 -119.3467 127° Southeast 463 533 35,000 743 Level Los Angeles Center
Wed 04:29:04 PM 35.3503 -119.1967 127° Southeast 462 532 36,300 960 Climbing Los Angeles Center
Wed 04:30:06 PM 35.2736 -119.0719 127° Southeast 458 527 37,000 339 Climbing Los Angeles Center
Wed 04:31:08 PM 35.1964 -118.9494 128° Southeast 456 525 37,000  Level Los Angeles Center
Wed 04:32:10 PM 35.1178 -118.8264 128° Southeast 459 528 37,000  Level Los Angeles Center
Wed 04:33:12 PM 35.0400 -118.7033 128° Southeast 458 527 37,000  Level Los Angeles Center
Wed 04:34:14 PM 34.9464 -118.5547 128° Southeast 459 528 37,000  Level Los Angeles Center
Wed 04:35:29 PM 34.8600 -118.4214 128° Southeast 459 528 37,000  Level Los Angeles Center
Wed 04:36:31 PM 34.7819 -118.2992 128° Southeast 460 529 37,000  Level Los Angeles Center
Wed 04:37:33 PM 34.6892 -118.1542 128° Southeast 456 525 37,000  Level Los Angeles Center
Wed 04:38:35 PM 34.6225 -118.0242 122° Southeast 458 527 37,000  Level Los Angeles Center
Wed 04:39:37 PM 34.5775 -117.8842 111° Southeast 453 521 37,000  Level Los Angeles Center
Wed 04:40:39 PM 34.5361 -117.7436 110° East 449 517 37,000  Level Los Angeles Center
Wed 04:41:41 PM 34.4847 -117.5733 110° East 452 520 37,000  Level Los Angeles Center
Wed 04:42:43 PM 34.4406 -117.4300 110° East 455 524 37,000  Level Los Angeles Center
Wed 04:43:46 PM 34.3981 -117.2889 110° East 450 518 37,000  Level Los Angeles Center
Wed 04:44:48 PM 34.3542 -117.1453 110° East 453 521 37,000  Level Los Angeles Center
Wed 04:45:50 PM 34.3111 -117.0033 110° East 452 520 37,000  Level Los Angeles Center
Wed 04:46:52 PM 34.2658 -116.8608 111° Southeast 455 524 37,000  Level Los Angeles Center
Wed 04:47:54 PM 34.2125 -116.6897 111° Southeast 455 524 37,000  Level Los Angeles Center
Wed 04:49:08 PM 34.1678 -116.5486 111° Southeast 452 520 37,000  Level Los Angeles Center
Wed 04:50:10 PM 34.1164 -116.3775 110° East 450 518 37,000 -48 Level Los Angeles Center
Wed 04:51:12 PM 34.0736 -116.2358 110° East 449 517 36,900  Descending Los Angeles Center
Wed 04:52:14 PM 34.0286 -116.0931 111° Southeast 453 521 37,000 48 Climbing Los Angeles Center
Wed 04:53:16 PM 33.9736 -115.9214 111° Southeast 456 525 37,000  Level Los Angeles Center
Wed 04:54:18 PM 33.9264 -115.7758 111° Southeast 462 532 37,000 -48 Level Los Angeles Center
Wed 04:55:20 PM 33.8808 -115.6336 111° Southeast 456 525 36,900 -47 Descending Los Angeles Center
Wed 04:56:25 PM 33.8350 -115.4939 112° Southeast 450 518 36,900 48 Level Los Angeles Center
Wed 04:57:24 PM 33.7889 -115.3506 111° Southeast 456 525 37,000 50 Climbing Los Angeles Center
Wed 04:58:26 PM 33.7528 -115.2381 111° Southeast 454 522 37,000  Level Los Angeles Center
Wed 04:59:29 PM 33.6969 -115.0667 111° Southeast 457 526 37,000 -788 Level Los Angeles Center
Wed 05:00:43 PM 33.6394 -114.8964 112° Southeast 457 526 35,200 -1,772 Descending Los Angeles Center
Wed 05:01:58 PM 33.5814 -114.7025 110° East 441 507 32,600 -1,883 Descending Los Angeles Center
Wed 05:03:00 PM 33.5586 -114.5639 101° East 426 490 30,900 -1,733 Descending Los Angeles Center
Wed 05:03:28 PM 33.5467 -114.4869 101° East 422 486 30,000 -1,733 Descending Albuquerque Center
Wed 05:04:30 PM 33.5183 -114.3536 104° East 417 480 28,300 -1,645 Descending Albuquerque Center
Wed 05:05:32 PM 33.4897 -114.2114 104° East 431 496 26,600 -1,597 Descending Albuquerque Center
Wed 05:06:34 PM 33.4611 -114.0703 104° East 435 501 25,000 -774 Descending Albuquerque Center
Wed 05:07:36 PM 33.4342 -113.9331 103° East 428 493 25,000 -585 Level Albuquerque Center
Wed 05:08:37 PM 33.4069 -113.7967 103° East 423 487 23,800 -1,659 Descending Albuquerque Center
Wed 05:09:39 PM 33.3808 -113.6642 103° East 413 475 21,600 -1,887 Descending Albuquerque Center
Wed 05:10:41 PM 33.3475 -113.5106 105° East 401 461 19,900 -1,258 Descending Albuquerque Center
Wed 05:11:43 PM 33.3228 -113.3872 103° East 387 445 19,000 -919 Descending Albuquerque Center
Wed 05:12:45 PM 33.2992 -113.2664 103° East 377 434 18,000 -1,113 Descending Albuquerque Center
Wed 05:13:47 PM 33.2719 -113.1425 105° East 381 438 16,700 -1,016 Descending Albuquerque Center
Wed 05:14:49 PM 33.2753 -113.0208 88° East 359 413 15,900 -726 Descending Albuquerque Center
Wed 05:15:51 PM 33.2800 -112.9033 87° East 352 405 15,200 -435 Descending Albuquerque Center
Wed 05:16:53 PM 33.2811 -112.7919 89° East 341 392 15,000 -341 Descending Albuquerque Center
Wed 05:17:54 PM 33.2842 -112.6608 88° East 332 382 14,500 -829 Descending Albuquerque Center
Wed 05:18:56 PM 33.2869 -112.5533 88° East 320 368 13,300 -1,161 Descending Albuquerque Center
Wed 05:19:58 PM 33.2908 -112.4483 87° East 318 366 12,100 -1,161 Descending Albuquerque Center
Wed 05:21:00 PM 33.2939 -112.3458 88° East 312 359 10,900 -871 Descending Albuquerque Center
Wed 05:22:02 PM 33.2986 -112.2517 87° East 288 331 10,300 -677 Descending Albuquerque Center
Wed 05:23:04 PM 33.3072 -112.1667 83° East 263 303 9,500 -677 Descending Albuquerque Center
Wed 05:24:06 PM 33.3128 -112.0836 85° East 255 293 8,900 -1,016 Descending Albuquerque Center
Wed 05:25:08 PM 33.3394 -111.9867 72° East 259 298 7,400 -1,113 Descending Albuquerque Center
Wed 05:26:10 PM 33.3447 -111.9081 85° East 238 274 6,600 -1,016 Descending Albuquerque Center
Wed 05:27:12 PM 33.3544 -111.8331 81° East 241 277 5,300 -1,258 Descending Albuquerque Center

Login

Don't have an account? Register now (free) for customized features, flight alerts, and more!